Terminal Aerodrome Forecast
Issued by NWS

Home | Current Version | Previous Version | Graphics & Text | Print | Product List | Glossary On
Versions: 1 2 3 4 5 6 7 8 9 10 11 12 13 14 15 16 17 18 19
000
FTUS43 KGRB 021300 AAA
TAFCWA
TAF AMD
KCWA 021309Z 0213/0312 25008KT P6SM VCTS SCT040 BKN090CB
      TEMPO 0213/0216 -SHRA BKN035
     FM021800 26009KT P6SM SCT050
     FM022300 22003KT P6SM SCT040=

USA.gov is the U.S. government's official web portal to all federal, state and local government web resources and services.